首页
METAR-TAF:

METAR-TAF

机场 :

Greenville Downtown Airport

格林维尔, 南卡罗来纳州, 美国

纬度: 34-50-46N, 经度: 082-20-46W, 海拔: 319米

当前天气观测

该预报发布于30分钟前的22:53 UTC
风速4节,风向多变
温度 19°C
湿度 94%
气压 1016 hPa
能見度: 16.1公里
多云层高于800英尺

METAR: KGMU 132253Z VRB04KT 10SM BKN008 19/18 A3000 RMK AO2 SLP153 T01940183

时间: 19:23 (23:23 UTC)

预报

该预报发布于1小时和35分钟前的21:48 UTC
预报有效从13日的 22点(UTC)到 14日的 18点(UTC)
风速7节,风向南转西南
能見度: 10公里
多云层高于900英尺
阴天层高于1200英尺
附近有阵雨
从 14日的 0000点(UTC)
风速6节,风向西南
能見度: 10公里
散云层高于2000英尺
多云层高于4000英尺
附近有阵雨
从 14日的 0800点(UTC)
风速2节,风向多变
能見度: 4.8公里
散云层高于1000英尺
轻雾
从 14日的 1400点(UTC)
风速5节,风向北转西北
能見度: 10公里
散云层高于25000英尺

TAF: KGMU 132148Z 1322/1418 20007KT P6SM VCSH BKN009 OVC012 FM140000 23006KT P6SM VCSH SCT020 BKN040 FM140800 VRB02KT 3SM BR SCT010 FM141400 34005KT P6SM SCT250

超过4000个机场的气象观测和天气预报(METAR&TAF报告)。

可查询的气象台以黄色和红色小点在地图上表示。

将鼠标移到小点上方,可查看气象台名称。

然后点击查看天气观测和预报。

如需切换地图:点击带黑十字的绿色按钮放大地图;点击带横线的绿色按钮缩小地图;或者点击绿色箭头查看邻近地区的地图。


METAR-TAF: